Time;durP1;ratioP1;P1;durP2;ratioP2;P2;SDS_P1;SDS_P2;PMS_P1;PMS_P2;Temp;Humidity;BMP_temperature;BMP_pressure;BME280_temperature;BME280_humidity;BME280_pressure;Samples;Min_cycle;Max_cycle;Signal;HPM_P1;HPM_P2
2021/01/09 00:00:17;;;;;;;14.30;12.80;;;2.00;99.90;;;;;;5094819;28;20533;-67
2021/01/09 00:02:44;;;;;;;16.37;13.50;;;2.00;99.90;;;;;;5094899;28;20453;-67
2021/01/09 00:05:12;;;;;;;15.97;13.97;;;2.10;99.90;;;;;;5094336;28;20557;-67
2021/01/09 00:07:40;;;;;;;17.00;13.87;;;2.10;99.90;;;;;;5094490;28;20438;-67
2021/01/09 00:10:09;;;;;;;16.60;14.23;;;2.10;99.90;;;;;;5094122;28;21275;-67
2021/01/09 00:12:36;;;;;;;14.60;13.00;;;2.00;99.90;;;;;;5094893;28;20434;-68
2021/01/09 00:15:04;;;;;;;15.30;12.50;;;2.10;99.90;;;;;;5094259;28;20493;-67
2021/01/09 00:17:30;;;;;;;14.27;12.80;;;2.10;99.90;;;;;;5094177;28;20430;-68
2021/01/09 00:19:57;;;;;;;15.17;13.57;;;2.10;99.90;;;;;;5094050;28;20525;-67
2021/01/09 00:22:24;;;;;;;19.70;16.17;;;2.10;99.90;;;;;;5094160;28;20434;-67
2021/01/09 00:24:52;;;;;;;15.63;13.07;;;2.10;99.90;;;;;;5094454;28;20464;-67
2021/01/09 00:27:19;;;;;;;15.57;13.40;;;2.20;99.90;;;;;;5095630;28;20471;-67
2021/01/09 00:29:45;;;;;;;19.83;15.97;;;2.10;99.90;;;;;;5096159;28;20446;-68
2021/01/09 00:32:12;;;;;;;16.67;13.20;;;2.20;99.90;;;;;;5094654;28;20482;-67
2021/01/09 00:34:39;;;;;;;18.17;15.80;;;2.10;99.90;;;;;;5095006;28;20519;-68
2021/01/09 00:37:06;;;;;;;16.40;12.73;;;2.10;99.90;;;;;;5095552;28;20474;-67
2021/01/09 00:39:33;;;;;;;14.30;12.80;;;2.10;99.90;;;;;;5095129;28;20518;-66
2021/01/09 00:42:01;;;;;;;15.83;14.00;;;2.10;99.90;;;;;;5094976;28;20525;-68
2021/01/09 00:44:28;;;;;;;16.47;13.40;;;2.10;99.90;;;;;;5095245;28;20541;-68
2021/01/09 00:46:55;;;;;;;16.93;12.73;;;2.20;99.90;;;;;;5095865;28;20442;-68
2021/01/09 00:49:22;;;;;;;17.03;12.90;;;2.20;99.90;;;;;;5095819;28;20874;-68
2021/01/09 00:51:49;;;;;;;17.47;13.90;;;2.20;99.90;;;;;;5095801;28;20973;-69
2021/01/09 00:54:16;;;;;;;17.17;14.37;;;2.20;99.90;;;;;;5095790;28;20468;-67
2021/01/09 00:56:43;;;;;;;15.90;13.87;;;2.20;99.90;;;;;;5095619;28;20450;-67
2021/01/09 00:59:12;;;;;;;17.43;13.10;;;2.20;99.90;;;;;;5094236;28;20891;-66
2021/01/09 01:01:39;;;;;;;16.43;14.17;;;2.20;99.90;;;;;;5093286;28;20444;-66
2021/01/09 01:04:05;;;;;;;13.57;12.03;;;2.20;99.90;;;;;;5093813;28;20549;-67
2021/01/09 01:06:32;;;;;;;14.60;12.30;;;2.20;99.90;;;;;;5094243;28;20826;-68
2021/01/09 01:08:59;;;;;;;16.07;12.97;;;2.20;99.90;;;;;;5093591;28;20502;-68
2021/01/09 01:11:27;;;;;;;13.60;12.17;;;2.30;99.90;;;;;;5092558;28;20474;-67
2021/01/09 01:13:55;;;;;;;13.87;12.10;;;2.30;99.90;;;;;;5092533;28;20549;-68
2021/01/09 01:16:23;;;;;;;18.03;12.97;;;2.30;99.90;;;;;;5092416;28;20890;-67
2021/01/09 01:18:50;;;;;;;12.87;11.17;;;2.20;99.90;;;;;;5092646;28;20496;-67
2021/01/09 01:21:16;;;;;;;16.27;13.33;;;2.30;99.90;;;;;;5091560;28;20950;-67
2021/01/09 01:23:43;;;;;;;13.80;11.67;;;2.30;99.90;;;;;;5091669;28;20550;-67
2021/01/09 01:26:11;;;;;;;17.97;14.80;;;2.30;99.90;;;;;;5091724;28;20542;-67
2021/01/09 01:28:38;;;;;;;13.17;11.70;;;2.30;99.90;;;;;;5091701;28;20450;-67
2021/01/09 01:31:05;;;;;;;16.40;13.70;;;2.30;99.90;;;;;;5091277;28;20565;-67
2021/01/09 01:33:33;;;;;;;18.93;14.10;;;2.30;99.90;;;;;;5091430;28;20549;-70
2021/01/09 01:36:00;;;;;;;17.27;12.70;;;2.30;99.90;;;;;;5091416;28;20471;-66
2021/01/09 01:38:26;;;;;;;15.63;12.23;;;2.30;99.90;;;;;;5091420;28;20932;-67
2021/01/09 01:41:00;;;;;;;13.40;11.40;;;2.20;99.90;;;;;;5091188;28;20521;-67
2021/01/09 01:43:27;;;;;;;13.23;11.63;;;2.20;99.90;;;;;;5091324;28;20998;-67
2021/01/09 01:45:54;;;;;;;13.60;11.63;;;2.20;99.90;;;;;;5091343;28;20542;-66
2021/01/09 01:48:20;;;;;;;13.83;11.43;;;2.20;99.90;;;;;;5091247;28;20442;-67
2021/01/09 01:50:50;;;;;;;16.27;11.00;;;2.20;99.90;;;;;;5091051;28;20488;-67
2021/01/09 01:53:16;;;;;;;15.27;12.60;;;2.20;99.90;;;;;;5091208;28;20466;-66
2021/01/09 01:55:43;;;;;;;13.30;11.33;;;2.20;99.90;;;;;;5091371;28;20460;-67
2021/01/09 01:58:10;;;;;;;13.70;12.27;;;2.20;99.90;;;;;;5091444;28;20524;-69
2021/01/09 02:00:42;;;;;;;16.80;13.37;;;2.20;99.90;;;;;;5094858;28;20442;-68
2021/01/09 02:03:09;;;;;;;13.03;11.63;;;2.20;99.90;;;;;;5094975;28;20442;-69
2021/01/09 02:05:40;;;;;;;14.93;11.80;;;2.30;99.90;;;;;;5095258;28;20818;-68
2021/01/09 02:08:11;;;;;;;13.47;10.67;;;2.30;99.90;;;;;;5095319;28;20498;-66
2021/01/09 02:10:39;;;;;;;16.00;12.13;;;2.30;99.90;;;;;;5094954;28;20498;-67
2021/01/09 02:13:12;;;;;;;14.47;11.53;;;2.40;99.90;;;;;;5095068;28;20495;-66
2021/01/09 02:15:40;;;;;;;13.83;10.87;;;2.40;99.90;;;;;;5095041;28;20902;-67
2021/01/09 02:18:07;;;;;;;12.80;11.13;;;2.40;99.90;;;;;;5094964;28;20848;-69
2021/01/09 02:20:35;;;;;;;11.90;10.70;;;2.40;99.90;;;;;;5094492;28;20442;-69
2021/01/09 02:23:03;;;;;;;13.80;10.43;;;2.40;99.90;;;;;;5094704;28;20446;-69
2021/01/09 02:25:29;;;;;;;13.17;11.83;;;2.40;99.90;;;;;;5094710;28;20446;-69
2021/01/09 02:27:56;;;;;;;13.97;11.40;;;2.40;99.90;;;;;;5095199;28;20438;-69
2021/01/09 02:30:24;;;;;;;13.77;10.80;;;2.50;99.90;;;;;;5094430;28;20450;-69
2021/01/09 02:32:55;;;;;;;13.17;11.77;;;2.50;99.90;;;;;;5094524;28;20443;-69
2021/01/09 02:35:23;;;;;;;13.60;11.90;;;2.50;99.90;;;;;;5094626;28;20501;-70
2021/01/09 02:37:50;;;;;;;13.00;11.70;;;2.50;99.90;;;;;;5094474;28;20441;-69
2021/01/09 02:40:18;;;;;;;14.57;11.67;;;2.50;99.90;;;;;;5094236;28;20449;-69
2021/01/09 02:42:45;;;;;;;14.10;12.30;;;2.50;99.90;;;;;;5094429;28;20442;-69
2021/01/09 02:45:11;;;;;;;15.90;12.70;;;2.60;99.90;;;;;;5094280;28;20631;-69
2021/01/09 02:47:38;;;;;;;16.40;14.10;;;2.60;99.90;;;;;;5095898;28;20443;-69
2021/01/09 02:50:05;;;;;;;20.23;14.00;;;2.60;99.90;;;;;;5097758;28;20458;-69
2021/01/09 02:52:32;;;;;;;16.00;12.83;;;2.60;99.90;;;;;;5099094;28;20478;-68
2021/01/09 02:54:58;;;;;;;16.77;13.63;;;2.60;99.90;;;;;;5097740;28;20458;-70
2021/01/09 02:57:25;;;;;;;22.33;16.47;;;2.60;99.90;;;;;;5096509;28;20442;-68
2021/01/09 02:59:51;;;;;;;20.00;15.37;;;2.70;99.90;;;;;;5094676;28;20442;-70
2021/01/09 03:02:17;;;;;;;27.00;18.57;;;2.60;99.90;;;;;;5095052;28;20442;-69
2021/01/09 03:04:44;;;;;;;23.17;18.03;;;2.60;99.90;;;;;;5095183;28;20462;-69
2021/01/09 03:07:10;;;;;;;20.10;15.60;;;2.70;99.90;;;;;;5094464;28;20446;-69
2021/01/09 03:09:36;;;;;;;20.13;15.10;;;2.70;99.90;;;;;;5093867;28;20809;-68
2021/01/09 03:12:03;;;;;;;25.33;17.50;;;2.70;99.90;;;;;;5094311;28;20478;-69
2021/01/09 03:14:30;;;;;;;23.93;16.80;;;2.70;99.90;;;;;;5094966;28;20454;-70
2021/01/09 03:16:56;;;;;;;19.40;14.00;;;2.70;99.90;;;;;;5094784;28;20442;-70
2021/01/09 03:19:22;;;;;;;20.13;14.73;;;2.70;99.90;;;;;;5094242;28;20439;-68
2021/01/09 03:21:49;;;;;;;14.07;12.57;;;2.70;99.90;;;;;;5094537;28;20439;-69
2021/01/09 03:24:15;;;;;;;13.47;12.07;;;2.60;99.90;;;;;;5094993;28;20971;-70
2021/01/09 03:26:42;;;;;;;12.83;11.53;;;2.60;99.90;;;;;;5094451;28;20845;-69
2021/01/09 03:29:08;;;;;;;15.80;11.70;;;2.60;99.90;;;;;;5095223;28;20446;-69
2021/01/09 03:31:35;;;;;;;16.30;11.33;;;2.60;99.90;;;;;;5095117;28;20478;-67
2021/01/09 03:34:01;;;;;;;15.17;11.30;;;2.50;99.90;;;;;;5095111;28;20492;-69
2021/01/09 03:36:28;;;;;;;14.83;12.40;;;2.50;99.90;;;;;;5094516;28;20854;-69
2021/01/09 03:38:54;;;;;;;16.10;11.87;;;2.50;99.90;;;;;;5094233;28;20443;-68
2021/01/09 03:41:20;;;;;;;19.30;13.30;;;2.50;99.90;;;;;;5093635;28;20438;-69
2021/01/09 03:43:46;;;;;;;14.73;12.40;;;2.50;99.90;;;;;;5093176;28;20462;-69
2021/01/09 03:46:13;;;;;;;15.03;10.10;;;2.50;99.90;;;;;;5093096;28;20447;-68
2021/01/09 03:48:40;;;;;;;17.67;12.73;;;2.50;99.90;;;;;;5092889;28;20447;-69
2021/01/09 03:51:06;;;;;;;14.33;11.07;;;2.50;99.90;;;;;;5092776;28;21083;-69
2021/01/09 03:53:32;;;;;;;14.10;11.33;;;2.50;99.90;;;;;;5092974;28;20466;-69
2021/01/09 03:55:59;;;;;;;16.83;12.80;;;2.50;99.90;;;;;;5093092;28;20442;-69
2021/01/09 03:58:25;;;;;;;15.10;12.07;;;2.50;99.90;;;;;;5093072;28;20452;-69
2021/01/09 04:00:51;;;;;;;19.37;12.60;;;2.60;99.90;;;;;;5092707;28;20435;-69
2021/01/09 04:03:17;;;;;;;15.63;11.97;;;2.60;99.90;;;;;;5092557;28;20535;-69
2021/01/09 04:05:44;;;;;;;14.43;12.00;;;2.50;99.90;;;;;;5092898;28;20443;-69
2021/01/09 04:08:11;;;;;;;15.23;12.30;;;2.50;99.90;;;;;;5092783;28;20452;-69
2021/01/09 04:10:37;;;;;;;16.60;12.70;;;2.60;99.90;;;;;;5092387;28;20438;-69
2021/01/09 04:13:03;;;;;;;14.90;12.30;;;2.60;99.90;;;;;;5092550;28;20442;-69
2021/01/09 04:15:29;;;;;;;15.53;12.40;;;2.60;99.90;;;;;;5092588;28;20480;-69
2021/01/09 04:17:56;;;;;;;16.70;11.80;;;2.60;99.90;;;;;;5092615;28;20446;-69
2021/01/09 04:20:22;;;;;;;14.27;12.77;;;2.60;99.90;;;;;;5092386;28;20438;-69
2021/01/09 04:22:49;;;;;;;14.80;12.13;;;2.60;99.90;;;;;;5092081;28;20438;-68
2021/01/09 04:25:15;;;;;;;16.03;13.43;;;2.60;99.90;;;;;;5092922;28;20458;-69
2021/01/09 04:27:42;;;;;;;18.13;15.03;;;2.70;99.90;;;;;;5092807;28;20653;-69
2021/01/09 04:30:09;;;;;;;21.23;15.60;;;2.60;99.90;;;;;;5092157;28;20442;-69
2021/01/09 04:32:35;;;;;;;15.87;13.50;;;2.70;99.90;;;;;;5092103;28;20488;-68
2021/01/09 04:35:02;;;;;;;21.50;17.33;;;2.70;99.90;;;;;;5092215;28;20466;-69
2021/01/09 04:37:28;;;;;;;20.60;16.50;;;2.70;99.90;;;;;;5092266;28;21066;-69
2021/01/09 04:39:56;;;;;;;16.93;14.80;;;2.70;99.90;;;;;;5091944;28;20438;-69
2021/01/09 04:42:22;;;;;;;17.17;14.30;;;2.80;99.90;;;;;;5092154;28;20461;-69
2021/01/09 04:44:48;;;;;;;17.23;13.40;;;2.80;99.90;;;;;;5092106;28;20466;-67
2021/01/09 04:47:15;;;;;;;17.07;13.93;;;2.80;99.90;;;;;;5092004;28;20947;-68
2021/01/09 04:49:42;;;;;;;15.73;13.03;;;2.90;99.90;;;;;;5091835;28;20951;-67
2021/01/09 04:52:10;;;;;;;17.13;14.10;;;2.90;99.90;;;;;;5091896;28;20486;-68
2021/01/09 04:54:37;;;;;;;18.03;13.47;;;2.90;99.90;;;;;;5091857;28;21056;-67
2021/01/09 04:57:05;;;;;;;15.40;12.60;;;2.80;99.90;;;;;;5092150;28;20476;-68
2021/01/09 04:59:34;;;;;;;15.37;12.67;;;2.80;99.90;;;;;;5091852;28;20442;-68
2021/01/09 05:02:01;;;;;;;23.37;14.10;;;2.80;99.90;;;;;;5091912;28;20438;-68
2021/01/09 05:04:27;;;;;;;18.33;14.80;;;2.70;99.90;;;;;;5105435;22;20483;-71
2021/01/09 05:06:54;;;;;;;21.57;15.80;;;2.60;99.90;;;;;;5063106;28;20466;-71
2021/01/09 05:09:20;;;;;;;21.00;16.10;;;2.60;99.90;;;;;;5071579;28;21001;-71
2021/01/09 05:11:46;;;;;;;27.50;17.63;;;2.50;99.90;;;;;;5071205;28;20483;-72
2021/01/09 05:14:14;;;;;;;27.03;16.80;;;2.50;99.90;;;;;;5071396;28;20824;-70
2021/01/09 05:16:40;;;;;;;33.53;22.63;;;2.50;99.90;;;;;;5071374;28;20443;-71
2021/01/09 05:19:08;;;;;;;28.30;19.97;;;2.50;99.90;;;;;;5071431;28;20451;-70
2021/01/09 05:21:36;;;;;;;22.00;15.47;;;2.50;99.90;;;;;;5071146;28;20450;-71
2021/01/09 05:24:04;;;;;;;30.67;21.57;;;2.60;99.90;;;;;;5071390;28;20459;-71
2021/01/09 05:26:31;;;;;;;24.00;16.73;;;2.60;99.90;;;;;;5071285;28;20500;-70
2021/01/09 05:28:59;;;;;;;33.73;22.50;;;2.70;99.90;;;;;;5071388;28;21157;-71
2021/01/09 05:31:30;;;;;;;24.33;17.50;;;2.80;99.90;;;;;;5070932;28;20475;-71
2021/01/09 05:33:56;;;;;;;28.57;18.10;;;2.80;99.90;;;;;;5074437;28;20441;-71
2021/01/09 05:36:23;;;;;;;32.20;18.83;;;2.90;99.90;;;;;;5075502;28;20447;-70
2021/01/09 05:38:50;;;;;;;35.00;21.00;;;2.90;99.90;;;;;;5075382;28;20466;-70
2021/01/09 05:41:18;;;;;;;38.57;23.20;;;2.90;99.90;;;;;;5075104;28;20439;-71
2021/01/09 05:43:48;;;;;;;51.57;30.20;;;3.00;99.90;;;;;;5075095;28;20503;-73
2021/01/09 05:46:16;;;;;;;57.70;30.33;;;2.90;99.90;;;;;;5075051;28;20450;-72
2021/01/09 05:48:44;;;;;;;64.47;35.00;;;2.80;99.90;;;;;;5075111;28;20447;-71
2021/01/09 05:51:13;;;;;;;61.67;34.80;;;2.80;99.90;;;;;;5074836;28;20479;-72
2021/01/09 05:53:42;;;;;;;66.30;33.97;;;2.80;99.90;;;;;;5074969;28;20460;-71
2021/01/09 05:56:09;;;;;;;54.20;29.63;;;2.80;99.90;;;;;;5074937;28;20461;-70
2021/01/09 05:58:36;;;;;;;67.20;33.43;;;2.80;99.90;;;;;;5074960;28;20932;-71
2021/01/09 06:01:07;;;;;;;64.87;35.23;;;2.80;99.90;;;;;;5074603;28;20444;-69
2021/01/09 06:03:39;;;;;;;58.40;35.07;;;2.80;99.90;;;;;;5074650;28;20842;-71
2021/01/09 06:06:22;;;;;;;62.43;33.50;;;2.70;99.90;;;;;;5074789;28;20443;-70
2021/01/09 06:08:53;;;;;;;64.63;34.77;;;2.70;99.90;;;;;;5074756;28;20447;-70
2021/01/09 06:11:29;;;;;;;62.50;32.07;;;2.70;99.90;;;;;;5074413;28;20882;-72
2021/01/09 06:13:59;;;;;;;57.87;33.77;;;2.80;99.90;;;;;;5074656;28;20875;-73
2021/01/09 06:16:26;;;;;;;60.70;31.40;;;2.80;99.90;;;;;;5074299;28;20504;-72
2021/01/09 06:18:53;;;;;;;57.67;29.60;;;2.90;99.90;;;;;;5074536;28;20447;-72
2021/01/09 06:21:21;;;;;;;58.43;31.47;;;2.90;99.90;;;;;;5074376;28;20439;-72
2021/01/09 06:23:47;;;;;;;54.73;28.93;;;3.00;99.90;;;;;;5074310;28;20466;-72
2021/01/09 06:26:15;;;;;;;56.37;29.10;;;3.10;99.90;;;;;;5074326;28;20944;-72
2021/01/09 06:28:46;;;;;;;60.50;30.50;;;3.10;99.90;;;;;;5074323;28;20454;-72
2021/01/09 06:31:18;;;;;;;48.80;32.03;;;3.10;99.90;;;;;;5073951;28;20970;-72
2021/01/09 06:33:48;;;;;;;56.23;30.37;;;3.10;99.90;;;;;;5074261;28;20459;-71
2021/01/09 06:36:15;;;;;;;54.10;27.47;;;3.20;99.90;;;;;;5074361;28;20849;-71
2021/01/09 06:38:44;;;;;;;41.80;25.00;;;3.20;99.90;;;;;;5074102;28;20450;-71
2021/01/09 06:41:14;;;;;;;46.47;26.97;;;3.30;99.90;;;;;;5073870;28;20481;-71
2021/01/09 06:43:46;;;;;;;49.40;26.70;;;3.30;99.90;;;;;;5073830;28;20976;-72
2021/01/09 06:46:25;;;;;;;47.97;24.90;;;3.30;99.90;;;;;;5073694;28;20466;-71
2021/01/09 06:48:52;;;;;;;43.00;23.40;;;3.30;99.90;;;;;;5073967;28;20453;-71
2021/01/09 06:51:43;;;;;;;42.90;23.67;;;3.20;99.90;;;;;;5073672;28;20475;-72
2021/01/09 06:54:42;;;;;;;53.00;27.27;;;3.10;99.90;;;;;;5054046;28;20464;-71
2021/01/09 06:57:10;;;;;;;65.03;31.70;;;3.10;99.90;;;;;;5073769;28;20447;-72
2021/01/09 06:59:38;;;;;;;62.97;30.80;;;3.10;99.90;;;;;;5073663;28;20431;-71
2021/01/09 07:02:19;;;;;;;64.17;31.50;;;3.10;99.90;;;;;;5073691;28;20435;-71
2021/01/09 07:05:04;;;;;;;67.63;32.90;;;3.10;99.90;;;;;;5073707;28;20475;-71
2021/01/09 07:07:35;;;;;;;56.80;31.73;;;3.00;99.90;;;;;;5073883;28;20500;-72
2021/01/09 07:10:22;;;;;;;63.33;31.47;;;3.00;99.90;;;;;;5073569;28;20462;-73
2021/01/09 07:12:50;;;;;;;76.00;33.47;;;3.00;99.90;;;;;;5073596;28;20501;-72
2021/01/09 07:15:18;;;;;;;63.37;31.03;;;2.90;99.90;;;;;;5073426;28;20466;-70
2021/01/09 07:17:49;;;;;;;78.10;32.43;;;2.90;99.90;;;;;;5073612;28;20439;-71
2021/01/09 07:20:19;;;;;;;66.07;32.70;;;3.00;99.90;;;;;;5073413;28;20482;-72
2021/01/09 07:22:50;;;;;;;69.73;31.73;;;3.00;99.90;;;;;;5073715;28;20492;-69
2021/01/09 07:25:27;;;;;;;71.17;32.47;;;2.90;99.90;;;;;;5073389;28;20459;-71
2021/01/09 07:27:56;;;;;;;60.90;31.67;;;3.00;99.90;;;;;;5073185;28;20447;-70
2021/01/09 07:30:24;;;;;;;60.83;32.63;;;3.00;99.90;;;;;;5072936;28;20443;-71
2021/01/09 07:32:51;;;;;;;78.00;29.90;;;3.00;99.90;;;;;;5072969;28;20475;-70
2021/01/09 07:35:24;;;;;;;69.60;33.83;;;3.10;99.90;;;;;;5073080;28;20813;-70
2021/01/09 07:37:52;;;;;;;64.60;31.03;;;3.10;99.90;;;;;;5072889;28;20435;-71
2021/01/09 07:40:21;;;;;;;64.90;31.87;;;3.20;99.90;;;;;;5072863;28;20936;-71
2021/01/09 07:42:49;;;;;;;64.13;28.87;;;3.10;99.90;;;;;;5073461;28;20444;-70
2021/01/09 07:45:17;;;;;;;51.53;27.73;;;3.10;99.90;;;;;;5073027;28;20463;-69
2021/01/09 07:47:46;;;;;;;48.60;27.63;;;3.00;99.90;;;;;;5072990;28;20807;-70
2021/01/09 07:50:14;;;;;;;51.20;26.93;;;3.00;99.90;;;;;;5072563;28;20431;-70
2021/01/09 07:52:41;;;;;;;48.23;25.77;;;3.10;99.90;;;;;;5072918;28;20490;-69
2021/01/09 07:55:09;;;;;;;46.23;24.63;;;3.00;99.90;;;;;;5072833;28;20520;-71
2021/01/09 07:57:39;;;;;;;47.37;24.53;;;3.00;99.90;;;;;;5071995;28;20454;-71
2021/01/09 08:00:16;;;;;;;50.67;26.57;;;3.10;99.90;;;;;;5072411;28;20450;-70
2021/01/09 08:02:46;;;;;;;43.70;26.23;;;3.10;99.90;;;;;;5072881;28;20443;-70
2021/01/09 08:05:15;;;;;;;52.80;29.07;;;3.10;99.90;;;;;;5073329;28;20876;-70
2021/01/09 08:07:43;;;;;;;65.27;29.83;;;3.10;99.90;;;;;;5073000;28;20451;-71
2021/01/09 08:10:28;;;;;;;61.43;30.53;;;3.20;99.90;;;;;;5072179;28;20450;-71
2021/01/09 08:12:59;;;;;;;63.73;32.20;;;3.30;99.90;;;;;;5072440;28;20518;-71
2021/01/09 08:15:27;;;;;;;64.60;32.77;;;3.20;99.90;;;;;;5072409;28;20983;-71
2021/01/09 08:17:54;;;;;;;84.30;32.57;;;3.20;99.90;;;;;;5072649;28;20447;-70
2021/01/09 08:20:21;;;;;;;71.10;34.13;;;3.20;99.90;;;;;;5072104;28;20443;-71
2021/01/09 08:22:55;;;;;;;72.07;32.37;;;3.20;99.90;;;;;;5072852;28;20443;-71
2021/01/09 08:25:23;;;;;;;68.73;32.40;;;3.30;99.90;;;;;;5072082;28;21003;-70
2021/01/09 08:27:52;;;;;;;75.13;33.17;;;3.30;99.90;;;;;;5071928;28;20454;-70
2021/01/09 08:30:21;;;;;;;68.33;34.63;;;3.40;99.90;;;;;;5071756;28;20451;-71
2021/01/09 08:32:48;;;;;;;75.70;32.37;;;3.40;99.90;;;;;;5071978;28;20479;-71
2021/01/09 08:35:15;;;;;;;67.78;31.00;;;3.50;99.90;;;;;;5070903;28;20591;-69
2021/01/09 08:37:43;;;;;;;64.83;31.60;;;3.60;99.90;;;;;;5071890;28;20439;-70
2021/01/09 08:40:19;;;;;;;76.20;30.23;;;3.60;99.90;;;;;;5071559;28;20941;-70
2021/01/09 08:42:57;;;;;;;55.50;30.87;;;3.50;99.90;;;;;;5071834;28;20442;-69
2021/01/09 08:45:44;;;;;;;69.40;34.20;;;3.50;99.90;;;;;;5071828;28;20462;-69
2021/01/09 08:48:13;;;;;;;60.07;31.23;;;3.50;99.90;;;;;;5071661;28;20955;-71
2021/01/09 08:50:46;;;;;;;62.33;35.20;;;3.50;99.90;;;;;;5071611;28;20779;-69
2021/01/09 08:53:16;;;;;;;63.73;32.83;;;3.60;99.90;;;;;;5071523;28;20549;-69
2021/01/09 08:55:43;;;;;;;65.40;33.73;;;3.60;99.90;;;;;;5071569;28;20810;-70
2021/01/09 08:58:12;;;;;;;53.03;31.97;;;3.60;99.90;;;;;;5071507;28;20509;-70
2021/01/09 09:00:39;;;;;;;60.87;33.13;;;3.60;99.90;;;;;;5071408;28;20446;-70
2021/01/09 09:03:07;;;;;;;66.63;32.30;;;3.60;99.90;;;;;;5071579;28;20439;-71
2021/01/09 09:05:34;;;;;;;67.53;32.90;;;3.70;99.90;;;;;;5071283;28;20490;-72
2021/01/09 09:08:04;;;;;;;65.93;33.37;;;3.80;99.90;;;;;;5071041;28;20443;-71
2021/01/09 09:10:32;;;;;;;62.80;36.00;;;3.90;99.90;;;;;;5071287;28;20466;-71
2021/01/09 09:13:17;;;;;;;58.77;32.10;;;3.90;99.90;;;;;;5071206;28;20482;-72
2021/01/09 09:15:45;;;;;;;65.73;30.30;;;3.90;99.90;;;;;;5071483;28;20442;-73
2021/01/09 09:18:11;;;;;;;54.87;33.10;;;4.00;99.90;;;;;;5071293;28;20439;-71
2021/01/09 09:20:39;;;;;;;72.07;34.63;;;4.00;99.90;;;;;;5071080;28;20451;-70
2021/01/09 09:23:20;;;;;;;55.67;29.70;;;3.90;99.90;;;;;;5071232;28;20439;-70
2021/01/09 09:26:01;;;;;;;62.40;35.37;;;3.90;99.90;;;;;;5070620;28;20443;-70
2021/01/09 09:28:27;;;;;;;64.27;34.37;;;3.80;99.90;;;;;;5071354;28;20447;-71
2021/01/09 09:30:55;;;;;;;57.60;32.30;;;3.80;99.90;;;;;;5071086;28;20439;-71
2021/01/09 09:33:21;;;;;;;57.10;31.90;;;3.80;99.90;;;;;;5070881;28;20479;-72
2021/01/09 09:35:49;;;;;;;57.77;33.57;;;3.70;99.90;;;;;;5071140;28;20543;-71
2021/01/09 09:38:27;;;;;;;73.60;37.53;;;3.70;99.90;;;;;;5071023;28;20437;-71
2021/01/09 09:41:05;;;;;;;61.33;31.40;;;3.70;99.90;;;;;;5070172;28;20448;-72
2021/01/09 09:43:34;;;;;;;51.70;30.30;;;3.60;99.90;;;;;;5059036;28;20850;-72
2021/01/09 09:46:04;;;;;;;62.27;34.33;;;3.50;99.90;;;;;;5058776;28;20446;-72
2021/01/09 09:48:34;;;;;;;60.13;33.47;;;3.60;99.90;;;;;;5058849;28;20524;-72
2021/01/09 09:51:07;;;;;;;54.50;33.10;;;3.60;99.90;;;;;;5058887;28;20559;-72
2021/01/09 09:53:36;;;;;;;57.97;35.80;;;3.70;99.90;;;;;;5058704;28;20489;-71
2021/01/09 09:56:14;;;;;;;68.73;36.23;;;3.80;99.90;;;;;;5059030;28;20477;-70
2021/01/09 09:58:42;;;;;;;73.70;36.50;;;3.80;99.90;;;;;;5058652;28;20498;-71
2021/01/09 10:01:22;;;;;;;70.37;39.73;;;3.80;99.90;;;;;;5058728;28;20449;-71
2021/01/09 10:03:50;;;;;;;75.87;37.77;;;3.80;99.90;;;;;;5058807;28;20497;-71
2021/01/09 10:06:18;;;;;;;70.17;33.90;;;3.90;99.90;;;;;;5059059;28;20824;-70
2021/01/09 10:08:46;;;;;;;86.13;38.80;;;3.90;99.90;;;;;;5058928;28;20527;-71
2021/01/09 10:11:15;;;;;;;77.47;36.47;;;3.90;99.90;;;;;;5058647;28;20447;-71
2021/01/09 10:13:42;;;;;;;64.10;33.33;;;3.90;99.90;;;;;;5058630;28;21037;-71
2021/01/09 10:16:11;;;;;;;70.30;33.37;;;3.90;99.90;;;;;;5058665;28;20454;-69
2021/01/09 10:18:38;;;;;;;67.60;33.60;;;4.00;99.90;;;;;;5058515;28;20517;-71
2021/01/09 10:21:04;;;;;;;70.47;34.80;;;4.00;99.90;;;;;;5061470;28;20442;-71
2021/01/09 10:23:31;;;;;;;80.57;37.90;;;4.00;99.90;;;;;;5062309;28;20463;-71
2021/01/09 10:25:57;;;;;;;71.33;36.10;;;4.00;99.90;;;;;;5062381;28;20456;-71
2021/01/09 10:28:23;;;;;;;69.40;35.53;;;4.00;99.90;;;;;;5062155;28;20446;-71
2021/01/09 10:30:50;;;;;;;71.77;36.60;;;4.00;99.90;;;;;;5062060;28;20443;-72
2021/01/09 10:33:16;;;;;;;73.60;36.20;;;4.00;99.90;;;;;;5062374;28;20949;-72
2021/01/09 10:35:49;;;;;;;69.77;33.40;;;4.00;99.90;;;;;;5062162;28;20447;-73
2021/01/09 10:38:19;;;;;;;67.93;33.40;;;4.10;99.90;;;;;;5062657;28;20451;-72
2021/01/09 10:40:47;;;;;;;65.40;35.73;;;4.00;99.90;;;;;;5061942;28;20454;-72
2021/01/09 10:43:14;;;;;;;62.03;30.37;;;4.00;99.90;;;;;;5061678;28;20526;-70
2021/01/09 10:45:40;;;;;;;59.07;30.17;;;4.00;99.90;;;;;;5061920;28;20959;-71
2021/01/09 10:48:07;;;;;;;62.33;32.30;;;4.00;99.90;;;;;;5061901;28;20530;-72
2021/01/09 10:50:34;;;;;;;63.60;29.80;;;4.00;99.90;;;;;;5062156;28;20451;-72
2021/01/09 10:53:01;;;;;;;46.73;28.27;;;4.10;99.90;;;;;;5065707;28;20564;-73
2021/01/09 10:55:27;;;;;;;62.23;35.23;;;4.10;99.90;;;;;;5062630;28;20557;-74
2021/01/09 10:57:54;;;;;;;63.77;34.83;;;4.10;99.90;;;;;;5063219;28;20447;-72
2021/01/09 11:00:21;;;;;;;62.97;34.27;;;4.20;99.90;;;;;;5064761;28;20436;-70
2021/01/09 11:02:47;;;;;;;65.83;32.87;;;4.20;99.90;;;;;;5062571;28;20454;-71
2021/01/09 11:05:15;;;;;;;72.83;35.57;;;4.30;99.90;;;;;;5062349;28;20486;-70
2021/01/09 11:07:41;;;;;;;61.67;29.83;;;4.40;99.90;;;;;;5062026;28;20450;-70
2021/01/09 11:10:10;;;;;;;51.67;25.67;;;4.40;99.90;;;;;;5061341;28;20870;-71
2021/01/09 11:12:36;;;;;;;50.70;30.50;;;4.30;99.90;;;;;;5062079;28;20486;-70
2021/01/09 11:15:03;;;;;;;44.77;24.07;;;4.20;99.90;;;;;;5061273;28;20988;-70
2021/01/09 11:17:30;;;;;;;51.53;27.20;;;4.30;99.90;;;;;;5061475;28;20447;-71
2021/01/09 11:19:56;;;;;;;43.83;25.97;;;4.30;99.90;;;;;;5061143;28;20443;-71
2021/01/09 11:22:22;;;;;;;39.97;26.27;;;4.30;99.90;;;;;;5061201;28;20469;-71
2021/01/09 11:24:49;;;;;;;50.80;27.07;;;4.30;99.90;;;;;;5061112;28;20920;-71
2021/01/09 11:27:17;;;;;;;43.60;23.20;;;4.30;99.90;;;;;;5061004;28;20450;-70
2021/01/09 11:29:44;;;;;;;36.70;23.07;;;4.40;99.90;;;;;;5061021;28;20462;-70
2021/01/09 11:32:10;;;;;;;45.73;24.00;;;4.40;99.90;;;;;;5060677;28;20517;-71
2021/01/09 11:34:36;;;;;;;37.80;22.53;;;4.50;99.90;;;;;;5060741;28;20478;-71
2021/01/09 11:37:02;;;;;;;39.07;22.23;;;4.60;99.90;;;;;;5061275;28;20447;-70
2021/01/09 11:39:29;;;;;;;28.80;21.77;;;4.40;99.90;;;;;;5061155;28;20458;-71
2021/01/09 11:41:57;;;;;;;31.57;20.37;;;4.30;99.90;;;;;;5060781;28;20454;-71
2021/01/09 11:44:24;;;;;;;27.30;19.37;;;4.40;99.90;;;;;;5060601;28;20467;-71
2021/01/09 11:46:51;;;;;;;33.80;21.30;;;4.30;99.90;;;;;;5060996;28;20493;-71
2021/01/09 11:49:17;;;;;;;29.13;21.37;;;4.30;99.90;;;;;;5060709;28;20837;-70
2021/01/09 11:51:43;;;;;;;28.53;19.57;;;4.20;99.90;;;;;;5060721;28;20536;-71
2021/01/09 11:54:09;;;;;;;25.47;19.00;;;4.30;99.90;;;;;;5060497;28;20463;-70
2021/01/09 11:56:36;;;;;;;29.13;20.20;;;4.40;99.90;;;;;;5060738;28;20451;-71
2021/01/09 11:59:02;;;;;;;24.83;20.80;;;4.40;99.90;;;;;;5060612;28;20455;-70
2021/01/09 12:01:36;;;;;;;24.53;20.10;;;4.50;99.90;;;;;;5060338;28;21106;-70
2021/01/09 12:04:03;;;;;;;28.27;21.50;;;4.60;99.90;;;;;;5060121;28;20479;-71
2021/01/09 12:06:29;;;;;;;22.93;20.63;;;4.50;99.90;;;;;;5060315;28;20443;-72
2021/01/09 12:08:55;;;;;;;29.20;21.13;;;4.50;99.90;;;;;;5060277;28;20447;-71
2021/01/09 12:11:22;;;;;;;26.40;20.80;;;4.50;99.90;;;;;;5059918;28;20451;-70
2021/01/09 12:13:48;;;;;;;22.97;20.57;;;4.50;99.90;;;;;;5060220;28;20525;-70
2021/01/09 12:16:15;;;;;;;24.43;19.83;;;4.50;99.90;;;;;;5060284;28;20448;-71
2021/01/09 12:18:42;;;;;;;27.50;20.60;;;4.60;99.90;;;;;;5060258;28;20501;-70
2021/01/09 12:21:08;;;;;;;25.07;20.80;;;4.60;99.90;;;;;;5059708;28;20525;-71
2021/01/09 12:23:34;;;;;;;21.37;19.07;;;4.70;99.90;;;;;;5059758;28;20809;-71
2021/01/09 12:26:01;;;;;;;21.50;18.17;;;4.90;99.90;;;;;;5059852;28;20447;-71
2021/01/09 12:28:27;;;;;;;24.40;19.83;;;4.90;99.90;;;;;;5059779;28;20450;-71
2021/01/09 12:30:53;;;;;;;21.50;18.83;;;4.90;99.90;;;;;;5059535;28;20458;-71
2021/01/09 12:33:19;;;;;;;22.67;20.27;;;5.10;99.90;;;;;;5059723;28;20486;-71
2021/01/09 12:35:48;;;;;;;23.63;18.37;;;5.20;99.90;;;;;;5059691;28;20444;-71
2021/01/09 12:38:15;;;;;;;22.53;18.47;;;5.20;99.90;;;;;;5059907;28;21069;-71
2021/01/09 12:40:42;;;;;;;21.67;19.50;;;5.40;99.90;;;;;;5059660;28;20447;-72